Annapolis, Indiana
Current Conditions -  °F | °C
As of 12:15 PM on Thursday 27 Nov 2014 (Local Time) from KPRG Reporting Station
Overcast Overcast  
Wind Chill: 17°   Ceiling: 1900
Heat Index: 28°   Visibility: 10mi
Dew Point: 23°   Wind: 14mph
Humidity: 81%   Direction: 300°WNW
Pressure: 30.4"   Gusts: 22mph
Location:  39.8468°N, 87.2662°W
Report Text: KPRG 271715Z AUTO 30012G19KT 10SM OVC019 M02/M05 A3040 RMK AO2 T10211050
Loading
Personal Weather Stations






























Interactive Weather Map New forecast layout! Learn more

10-Day Weather Forecast

Advertisements
Track Severe Weather on mobile